Time;durP1;ratioP1;P1;durP2;ratioP2;P2;SDS_P1;SDS_P2;PMS_P1;PMS_P2;Temp;Humidity;BMP_temperature;BMP_pressure;BME280_temperature;BME280_humidity;BME280_pressure;Samples;Min_cycle;Max_cycle;Signal;HPM_P1;HPM_P2
2022/08/15 00:02:22;;;;;;;5.30;3.80;;;25.90;1.00;;;;;;5062083;28;20216;-85
2022/08/15 00:04:47;;;;;;;5.03;3.53;;;25.80;1.00;;;;;;5068806;28;20189;-84
2022/08/15 00:07:13;;;;;;;3.20;2.90;;;25.80;1.00;;;;;;5056924;28;20507;-85
2022/08/15 00:09:39;;;;;;;6.23;3.17;;;25.70;1.00;;;;;;5053034;28;20207;-84
2022/08/15 00:12:06;;;;;;;5.10;3.07;;;25.70;1.00;;;;;;5071991;28;20205;-85
2022/08/15 00:14:34;;;;;;;9.20;3.33;;;25.70;1.00;;;;;;5066345;28;21056;-85
2022/08/15 00:17:07;;;;;;;5.43;3.40;;;25.70;1.00;;;;;;5067720;28;20436;-85
2022/08/15 00:19:33;;;;;;;3.60;2.53;;;25.70;1.00;;;;;;5065105;28;20469;-84
2022/08/15 00:22:06;;;;;;;6.27;3.00;;;25.60;1.00;;;;;;5067851;28;20555;-84
2022/08/15 00:24:33;;;;;;;5.23;3.10;;;25.60;1.00;;;;;;5056177;28;20197;-84
2022/08/15 00:27:01;;;;;;;5.10;3.30;;;25.60;1.00;;;;;;5073703;28;20431;-84
2022/08/15 00:29:29;;;;;;;3.13;2.80;;;25.60;1.00;;;;;;5048050;28;20531;-85
2022/08/15 00:31:55;;;;;;;6.17;3.53;;;25.60;1.00;;;;;;5048060;28;20512;-84
2022/08/15 00:34:22;;;;;;;7.93;3.20;;;25.50;1.00;;;;;;5053020;28;20436;-84
2022/08/15 00:36:49;;;;;;;7.03;2.80;;;25.50;1.00;;;;;;5063935;28;20519;-83
2022/08/15 00:39:17;;;;;;;9.43;2.70;;;25.50;1.00;;;;;;5062767;28;20478;-84
2022/08/15 00:41:43;;;;;;;7.07;3.30;;;25.50;1.00;;;;;;5067693;28;20555;-83
2022/08/15 00:44:19;;;;;;;5.83;3.27;;;25.50;1.00;;;;;;5068871;28;21053;-84
2022/08/15 00:46:55;;;;;;;7.40;3.00;;;25.50;1.00;;;;;;5063022;28;20261;-84
2022/08/15 00:49:24;;;;;;;6.50;2.77;;;25.40;1.00;;;;;;5065059;28;20455;-84
2022/08/15 00:51:57;;;;;;;4.57;3.20;;;25.40;1.00;;;;;;5064031;28;20943;-84
2022/08/15 00:54:44;;;;;;;5.13;2.90;;;25.40;1.00;;;;;;5064799;28;20456;-84
2022/08/15 00:57:21;;;;;;;4.13;3.10;;;25.40;1.00;;;;;;5063859;28;20445;-84
2022/08/15 00:59:52;;;;;;;4.50;3.00;;;25.40;1.00;;;;;;5065961;28;20459;-84
2022/08/15 01:02:25;;;;;;;5.73;2.87;;;25.30;1.00;;;;;;5043276;28;20494;-84
2022/08/15 01:04:51;;;;;;;5.40;3.43;;;25.30;1.00;;;;;;5045598;28;20440;-84
2022/08/15 01:07:18;;;;;;;13.27;3.70;;;25.30;1.00;;;;;;5052111;28;20458;-84
2022/08/15 01:09:43;;;;;;;4.13;3.20;;;25.30;1.00;;;;;;5043007;28;20502;-86
2022/08/15 01:12:15;;;;;;;4.93;3.37;;;25.30;1.00;;;;;;5067767;28;20437;-84
2022/08/15 01:14:45;;;;;;;8.33;3.43;;;25.20;1.00;;;;;;5059560;28;20189;-85
2022/08/15 01:17:12;;;;;;;5.90;3.20;;;25.20;1.00;;;;;;5051500;28;20437;-83
2022/08/15 01:19:50;;;;;;;5.67;2.90;;;25.20;1.00;;;;;;5066614;28;20500;-84
2022/08/15 01:22:16;;;;;;;6.37;3.70;;;25.20;1.00;;;;;;5049586;28;20474;-84
2022/08/15 01:25:03;;;;;;;4.57;3.00;;;25.10;1.00;;;;;;5065594;28;20481;-84
2022/08/15 01:27:41;;;;;;;8.63;3.33;;;25.10;1.00;;;;;;5043539;28;20182;-84
2022/08/15 01:30:11;;;;;;;5.50;2.73;;;25.10;1.00;;;;;;5050327;28;20472;-83
2022/08/15 01:32:36;;;;;;;4.83;2.60;;;25.10;1.00;;;;;;5045834;28;20979;-83
2022/08/15 01:35:03;;;;;;;5.40;3.10;;;25.10;1.00;;;;;;5057451;28;20445;-83
2022/08/15 01:37:30;;;;;;;11.30;3.47;;;25.10;1.00;;;;;;5064344;28;20215;-83
2022/08/15 01:40:05;;;;;;;5.17;2.73;;;25.10;1.00;;;;;;5047681;28;20464;-84
2022/08/15 01:42:41;;;;;;;5.43;3.10;;;25.10;1.00;;;;;;5064933;28;20510;-85
2022/08/15 01:45:14;;;;;;;5.03;2.90;;;25.10;1.00;;;;;;5040725;28;20466;-84
2022/08/15 01:48:05;;;;;;;6.57;3.13;;;25.00;1.00;;;;;;5057011;28;20463;-84
2022/08/15 01:50:40;;;;;;;6.10;3.10;;;25.00;1.00;;;;;;5057245;28;20438;-84
2022/08/15 01:53:15;;;;;;;4.50;2.63;;;25.00;1.00;;;;;;5043246;28;20443;-84
2022/08/15 01:55:51;;;;;;;6.20;3.13;;;25.00;1.40;;;;;;5060817;28;20489;-84
2022/08/15 01:58:17;;;;;;;3.43;2.57;;;25.00;1.60;;;;;;5069039;28;21062;-85
2022/08/15 02:00:57;;;;;;;8.43;3.03;;;24.90;2.40;;;;;;5061759;28;20435;-84
2022/08/15 02:03:33;;;;;;;4.53;2.60;;;24.90;2.20;;;;;;5067294;28;20180;-84
2022/08/15 02:06:12;;;;;;;5.20;3.10;;;24.90;2.10;;;;;;5045093;28;20977;-85
2022/08/15 02:08:39;;;;;;;4.73;2.90;;;24.90;2.50;;;;;;5048544;28;20450;-84
2022/08/15 02:11:11;;;;;;;3.17;2.87;;;24.90;2.70;;;;;;5040559;28;20455;-84
2022/08/15 02:13:37;;;;;;;4.77;2.77;;;24.80;3.10;;;;;;5062403;28;20959;-84
2022/08/15 02:16:04;;;;;;;6.90;2.73;;;24.80;3.40;;;;;;5063733;28;20466;-84
2022/08/15 02:18:30;;;;;;;6.67;2.90;;;24.70;3.40;;;;;;5040108;28;20470;-84
2022/08/15 02:20:57;;;;;;;6.00;3.03;;;24.70;4.00;;;;;;5043486;28;20464;-84
2022/08/15 02:23:24;;;;;;;8.00;3.77;;;24.70;4.40;;;;;;5040631;28;20960;-84
2022/08/15 02:25:51;;;;;;;7.53;3.07;;;24.60;4.00;;;;;;5049515;28;20511;-84
2022/08/15 02:28:17;;;;;;;5.67;3.00;;;24.60;4.60;;;;;;5049512;28;20534;-84
2022/08/15 02:30:43;;;;;;;3.93;2.50;;;24.50;4.60;;;;;;5061752;28;20462;-85
2022/08/15 02:33:08;;;;;;;4.50;2.63;;;24.50;4.90;;;;;;5041095;28;20438;-84
2022/08/15 02:35:34;;;;;;;5.90;2.80;;;24.50;4.80;;;;;;5061766;28;20183;-84
2022/08/15 02:38:04;;;;;;;6.67;3.10;;;24.40;5.60;;;;;;5064791;28;20187;-84
2022/08/15 02:40:30;;;;;;;3.97;3.33;;;24.40;6.10;;;;;;5064920;28;20179;-84
2022/08/15 02:43:01;;;;;;;6.33;3.30;;;24.40;6.10;;;;;;5049466;28;20481;-84
2022/08/15 02:45:26;;;;;;;5.00;2.67;;;24.40;6.80;;;;;;5042734;28;20878;-84
2022/08/15 02:47:52;;;;;;;4.87;2.60;;;24.40;6.80;;;;;;5045432;28;20520;-85
2022/08/15 02:50:22;;;;;;;3.50;2.57;;;24.40;7.10;;;;;;5065022;28;20207;-85
2022/08/15 02:52:49;;;;;;;4.60;3.00;;;24.30;7.20;;;;;;5067512;28;20181;-85
2022/08/15 02:55:15;;;;;;;3.43;2.90;;;24.30;7.60;;;;;;5063792;28;20814;-84
2022/08/15 02:57:41;;;;;;;6.83;2.90;;;24.30;8.00;;;;;;5053147;28;20541;-84
2022/08/15 03:00:13;;;;;;;5.23;3.17;;;24.30;8.90;;;;;;5045373;28;21198;-84
2022/08/15 03:02:54;;;;;;;4.90;3.20;;;24.30;9.30;;;;;;5051768;28;20203;-84
2022/08/15 03:05:21;;;;;;;3.80;2.50;;;24.30;9.80;;;;;;5063489;28;20444;-84
2022/08/15 03:07:47;;;;;;;4.33;3.20;;;24.20;9.80;;;;;;5065131;28;20944;-86
2022/08/15 03:10:12;;;;;;;3.73;2.90;;;24.20;10.20;;;;;;5063665;28;20500;-84
2022/08/15 03:12:56;;;;;;;4.90;2.67;;;24.20;10.70;;;;;;5062979;28;20211;-84
2022/08/15 03:15:32;;;;;;;8.10;3.23;;;24.20;11.30;;;;;;5061223;28;20246;-84
2022/08/15 03:17:58;;;;;;;6.00;2.60;;;24.20;11.40;;;;;;5064076;28;20449;-85
2022/08/15 03:20:24;;;;;;;5.27;2.53;;;24.20;13.00;;;;;;5062734;28;20450;-84
2022/08/15 03:22:53;;;;;;;5.23;2.70;;;24.20;12.50;;;;;;5060783;28;21063;-84
2022/08/15 03:25:20;;;;;;;5.10;2.67;;;24.20;12.90;;;;;;5063061;28;20796;-85
2022/08/15 03:27:46;;;;;;;4.47;3.00;;;24.20;13.60;;;;;;5071280;28;20434;-84
2022/08/15 03:30:15;;;;;;;2.63;2.40;;;24.20;14.10;;;;;;5045425;28;20536;-84
2022/08/15 03:32:49;;;;;;;4.40;2.43;;;24.20;14.80;;;;;;5061234;28;20441;-84
2022/08/15 03:35:16;;;;;;;3.00;2.60;;;24.20;15.00;;;;;;5055976;28;20432;-84
2022/08/15 03:37:45;;;;;;;3.40;2.67;;;24.20;15.50;;;;;;5047976;28;20461;-84
2022/08/15 03:40:12;;;;;;;2.53;2.33;;;24.20;15.90;;;;;;5049133;28;20494;-85
2022/08/15 03:42:38;;;;;;;4.00;2.90;;;24.20;16.60;;;;;;5073780;28;20473;-84
2022/08/15 03:45:10;;;;;;;5.10;2.87;;;24.20;16.60;;;;;;5050756;28;20441;-84
2022/08/15 03:47:36;;;;;;;4.43;2.67;;;24.20;16.80;;;;;;5052278;28;20220;-84
2022/08/15 03:50:03;;;;;;;4.80;2.80;;;24.20;17.90;;;;;;5053088;28;20442;-84
2022/08/15 03:52:28;;;;;;;6.53;2.90;;;24.20;18.90;;;;;;5049608;28;20431;-85
2022/08/15 03:54:54;;;;;;;6.53;3.43;;;24.20;18.60;;;;;;5070397;28;20983;-85
2022/08/15 03:57:20;;;;;;;5.13;3.07;;;24.20;19.20;;;;;;5069984;28;20189;-84
2022/08/15 03:59:46;;;;;;;6.23;3.30;;;24.10;18.80;;;;;;5072782;28;20461;-85
2022/08/15 04:02:12;;;;;;;7.13;3.50;;;24.10;19.10;;;;;;5053299;28;20612;-84
2022/08/15 04:04:38;;;;;;;6.33;3.37;;;24.10;19.30;;;;;;5054033;28;20606;-84
2022/08/15 04:07:04;;;;;;;6.57;3.17;;;24.10;19.90;;;;;;5055084;28;20437;-85
2022/08/15 04:09:30;;;;;;;6.07;3.10;;;24.10;20.60;;;;;;5053340;28;20678;-84
2022/08/15 04:11:58;;;;;;;6.87;2.93;;;24.10;21.00;;;;;;5051253;28;20469;-85
2022/08/15 04:14:24;;;;;;;7.17;3.20;;;24.00;31.70;;;;;;5056055;28;21096;-84
2022/08/15 04:16:50;;;;;;;4.67;3.50;;;24.00;23.10;;;;;;5065390;28;20981;-84
2022/08/15 04:19:15;;;;;;;4.00;3.43;;;24.00;22.80;;;;;;5070097;28;20457;-84
2022/08/15 04:21:42;;;;;;;4.43;2.97;;;24.00;23.90;;;;;;5050414;28;20660;-85
2022/08/15 04:24:08;;;;;;;8.20;3.60;;;24.00;23.90;;;;;;5055997;28;20202;-84
2022/08/15 04:26:34;;;;;;;5.17;3.43;;;23.90;24.60;;;;;;5048502;28;20463;-86
2022/08/15 04:29:00;;;;;;;5.40;2.97;;;23.90;25.10;;;;;;5072675;28;20500;-85
2022/08/15 04:31:26;;;;;;;5.63;3.20;;;23.90;26.20;;;;;;5065748;28;20469;-84
2022/08/15 04:33:52;;;;;;;4.40;3.00;;;23.90;26.50;;;;;;5068089;28;20473;-85
2022/08/15 04:36:19;;;;;;;4.00;2.93;;;23.90;26.90;;;;;;5067180;28;20197;-84
2022/08/15 04:38:47;;;;;;;6.47;3.30;;;23.90;27.50;;;;;;5068627;28;20212;-84
2022/08/15 04:41:13;;;;;;;3.30;3.00;;;23.90;28.70;;;;;;5063928;28;20430;-84
2022/08/15 04:43:43;;;;;;;4.77;2.73;;;23.90;29.00;;;;;;5057786;28;20438;-84
2022/08/15 04:46:09;;;;;;;5.00;3.00;;;23.90;29.40;;;;;;5051451;28;20441;-84
2022/08/15 04:48:35;;;;;;;3.63;2.40;;;23.80;29.90;;;;;;5061679;28;20447;-84
2022/08/15 04:51:06;;;;;;;6.80;3.10;;;23.90;30.40;;;;;;5046274;28;20469;-84
2022/08/15 04:53:35;;;;;;;6.10;3.40;;;23.80;30.90;;;;;;5068272;28;20191;-84
2022/08/15 04:56:03;;;;;;;3.63;2.93;;;23.80;31.60;;;;;;5068305;28;20454;-83
2022/08/15 04:58:30;;;;;;;10.23;3.60;;;23.80;31.90;;;;;;5069244;28;20454;-84
2022/08/15 05:01:05;;;;;;;4.07;3.40;;;23.90;31.60;;;;;;5065948;28;20501;-84
2022/08/15 05:03:31;;;;;;;8.10;3.00;;;23.90;31.80;;;;;;5046293;28;20940;-84
2022/08/15 05:06:03;;;;;;;4.63;2.87;;;23.90;32.50;;;;;;5068038;28;20437;-85
2022/08/15 05:08:31;;;;;;;6.03;3.40;;;23.90;33.30;;;;;;5064627;28;20450;-84
2022/08/15 05:11:04;;;;;;;6.43;2.67;;;23.90;34.40;;;;;;5066554;28;20442;-84
2022/08/15 05:13:35;;;;;;;10.87;3.40;;;23.90;33.90;;;;;;5066125;28;20442;-84
2022/08/15 05:16:04;;;;;;;4.90;3.00;;;24.00;34.50;;;;;;5049089;28;20476;-85
2022/08/15 05:18:31;;;;;;;4.60;2.90;;;24.00;35.50;;;;;;5068049;28;20457;-84
2022/08/15 05:20:57;;;;;;;3.83;3.40;;;24.00;37.00;;;;;;5069778;28;20478;-84
2022/08/15 05:23:25;;;;;;;6.23;3.37;;;24.00;36.90;;;;;;5045434;28;20432;-84
2022/08/15 05:25:54;;;;;;;5.17;2.90;;;24.00;37.90;;;;;;5050837;28;20194;-85
2022/08/15 05:28:28;;;;;;;8.20;2.80;;;24.10;38.70;;;;;;5065991;28;22030;-85
2022/08/15 05:30:58;;;;;;;7.63;2.93;;;24.10;39.50;;;;;;5066425;28;20435;-85
2022/08/15 05:33:29;;;;;;;5.50;2.40;;;24.20;39.60;;;;;;5067969;28;20522;-85
2022/08/15 05:35:58;;;;;;;9.27;3.60;;;24.20;39.90;;;;;;5049154;28;20434;-86
2022/08/15 05:38:45;;;;;;;4.60;2.77;;;24.20;41.50;;;;;;5066345;28;20455;-85
2022/08/15 05:41:26;;;;;;;6.27;3.20;;;24.20;41.60;;;;;;5052995;28;20449;-85
2022/08/15 05:44:21;;;;;;;6.80;3.30;;;24.20;41.80;;;;;;5050348;28;20440;-85
2022/08/15 05:46:50;;;;;;;5.07;2.90;;;24.20;42.80;;;;;;5067438;28;20434;-85
2022/08/15 05:49:30;;;;;;;8.90;3.40;;;24.20;43.00;;;;;;5067559;28;20496;-85
2022/08/15 05:51:56;;;;;;;9.87;3.47;;;24.30;44.50;;;;;;5044608;28;20465;-86
2022/08/15 05:54:56;;;;;;;5.50;3.00;;;24.30;43.80;;;;;;5059559;28;20453;-85
2022/08/15 05:57:38;;;;;;;7.50;3.80;;;24.30;43.90;;;;;;5059490;28;20184;-87
2022/08/15 06:00:13;;;;;;;7.37;3.50;;;24.40;45.00;;;;;;5045072;28;20459;-85
2022/08/15 06:02:44;;;;;;;4.70;3.30;;;24.50;46.00;;;;;;5038931;28;20435;-85
2022/08/15 06:05:23;;;;;;;4.97;3.90;;;25.00;47.10;;;;;;5058935;28;20444;-85
2022/08/15 06:07:52;;;;;;;5.80;3.90;;;25.20;44.70;;;;;;5046891;28;20422;-85
2022/08/15 06:10:44;;;;;;;6.23;3.70;;;25.30;44.50;;;;;;5068071;28;20574;-85
2022/08/15 06:13:22;;;;;;;6.27;3.13;;;25.30;44.80;;;;;;5028366;28;20465;-85
2022/08/15 06:15:59;;;;;;;6.43;3.83;;;25.40;44.70;;;;;;5070619;28;20425;-85
2022/08/15 06:18:27;;;;;;;4.50;3.40;;;25.30;44.00;;;;;;5068829;28;20488;-85
2022/08/15 06:21:17;;;;;;;5.67;3.43;;;25.30;44.20;;;;;;5053062;28;20453;-85
2022/08/15 06:23:46;;;;;;;9.80;3.87;;;25.30;45.10;;;;;;5051865;28;20487;-84
2022/08/15 06:26:17;;;;;;;11.77;3.50;;;25.20;45.60;;;;;;5054004;28;20823;-83
2022/08/15 06:29:04;;;;;;;7.23;4.03;;;25.20;46.60;;;;;;5053902;28;20465;-84
2022/08/15 06:31:37;;;;;;;4.90;3.00;;;25.20;46.90;;;;;;5072227;28;22029;-85
2022/08/15 06:34:21;;;;;;;5.33;4.30;;;25.10;47.70;;;;;;5071171;28;20444;-84
2022/08/15 06:36:57;;;;;;;5.83;3.77;;;25.10;49.10;;;;;;5057828;28;21012;-84
2022/08/15 06:39:45;;;;;;;6.50;3.27;;;25.10;49.70;;;;;;5053448;28;20485;-84
2022/08/15 06:42:21;;;;;;;4.57;2.93;;;25.00;50.70;;;;;;5066470;28;20478;-86
2022/08/15 06:44:51;;;;;;;6.77;3.47;;;25.00;52.30;;;;;;5068586;28;20843;-86
2022/08/15 06:47:21;;;;;;;5.30;3.00;;;24.90;53.60;;;;;;5068668;28;20959;-85
2022/08/15 06:49:51;;;;;;;7.73;3.83;;;24.90;55.00;;;;;;5070207;28;20454;-85
2022/08/15 06:52:18;;;;;;;5.40;3.47;;;24.90;56.60;;;;;;5072391;28;20558;-85
2022/08/15 06:54:44;;;;;;;5.30;3.53;;;24.80;58.20;;;;;;5064472;28;20520;-85
2022/08/15 06:57:34;;;;;;;4.77;3.23;;;24.80;60.00;;;;;;5067504;28;20478;-85
2022/08/15 07:00:08;;;;;;;6.17;3.30;;;24.70;63.90;;;;;;5058616;28;20201;-85
2022/08/15 07:03:03;;;;;;;5.77;4.20;;;24.60;66.30;;;;;;5064050;28;20439;-85
2022/08/15 07:05:44;;;;;;;4.70;3.03;;;24.60;70.00;;;;;;5041428;28;21105;-85
2022/08/15 07:08:21;;;;;;;4.20;3.50;;;24.60;73.90;;;;;;5061589;28;20523;-85
2022/08/15 07:11:02;;;;;;;5.13;3.93;;;24.60;92.40;;;;;;5070961;28;20651;-85
2022/08/15 07:13:40;;;;;;;5.80;3.43;;;24.70;79.00;;;;;;5063599;28;20834;-84
2022/08/15 07:16:19;;;;;;;7.60;4.20;;;24.70;84.20;;;;;;5054441;28;20433;-85
2022/08/15 07:18:56;;;;;;;10.97;3.63;;;24.90;88.60;;;;;;5064215;28;20455;-85
2022/08/15 07:21:22;;;;;;;5.00;3.37;;;24.90;91.80;;;;;;5070985;28;20471;-85
2022/08/15 07:24:08;;;;;;;8.80;3.73;;;25.00;91.40;;;;;;5070000;28;20450;-85
2022/08/15 07:26:49;;;;;;;5.67;3.60;;;25.10;91.00;;;;;;5050409;28;20971;-85
2022/08/15 07:29:40;;;;;;;4.33;3.70;;;25.20;90.20;;;;;;5062955;28;20467;-84
2022/08/15 07:32:22;;;;;;;4.90;3.63;;;25.20;90.30;;;;;;5057939;28;20463;-84
2022/08/15 07:35:01;;;;;;;8.10;3.23;;;25.30;88.30;;;;;;5055664;28;20439;-85
2022/08/15 07:37:39;;;;;;;6.00;4.00;;;25.40;87.60;;;;;;5074211;28;20916;-84
2022/08/15 07:40:14;;;;;;;6.40;3.60;;;25.50;88.00;;;;;;5062955;28;20444;-85
2022/08/15 07:42:42;;;;;;;14.30;3.90;;;25.60;87.10;;;;;;5059018;28;20436;-85
2022/08/15 07:45:20;;;;;;;8.60;4.40;;;25.60;84.90;;;;;;5062008;28;20524;-84
2022/08/15 07:47:56;;;;;;;8.13;4.20;;;25.60;84.50;;;;;;5058690;28;20447;-85
2022/08/15 07:50:35;;;;;;;4.27;3.83;;;25.60;84.70;;;;;;5073237;28;20433;-85
2022/08/15 07:53:18;;;;;;;5.13;4.17;;;25.60;84.30;;;;;;5059125;28;21039;-85
2022/08/15 07:56:14;;;;;;;6.83;4.30;;;25.60;86.30;;;;;;5055487;28;20432;-84
2022/08/15 07:58:42;;;;;;;6.03;3.70;;;25.60;87.10;;;;;;5056499;28;20669;-85
2022/08/15 08:01:22;;;;;;;4.40;3.87;;;25.50;96.90;;;;;;5053305;28;20486;-85
2022/08/15 08:04:05;;;;;;;4.40;3.83;;;25.60;88.90;;;;;;5072276;28;20440;-84
2022/08/15 08:06:39;;;;;;;4.50;3.73;;;25.80;89.40;;;;;;5056507;28;20556;-85
2022/08/15 08:09:29;;;;;;;5.57;3.93;;;25.90;89.20;;;;;;5057113;28;20465;-85
2022/08/15 08:12:07;;;;;;;5.43;3.97;;;26.00;88.80;;;;;;5072253;28;20499;-83
2022/08/15 08:15:00;;;;;;;4.87;4.23;;;25.90;88.00;;;;;;5062615;28;20435;-84
2022/08/15 08:18:12;;;;;;;10.40;4.10;;;25.90;88.40;;;;;;5074343;28;21001;-84
2022/08/15 08:21:03;;;;;;;7.63;4.30;;;25.90;89.90;;;;;;4985362;28;20527;-84
2022/08/15 08:23:33;;;;;;;6.80;4.30;;;25.90;90.00;;;;;;4989374;28;22120;-84
2022/08/15 08:26:19;;;;;;;9.73;5.20;;;25.80;90.80;;;;;;5035898;28;20512;-85
2022/08/15 08:29:09;;;;;;;7.13;4.53;;;25.70;91.40;;;;;;5075371;28;20557;-84
2022/08/15 08:31:40;;;;;;;4.53;4.13;;;25.60;93.10;;;;;;5060663;28;20874;-84
2022/08/15 08:34:34;;;;;;;7.50;4.70;;;25.60;94.70;;;;;;5058946;28;20443;-84
2022/08/15 08:37:26;;;;;;;8.53;4.43;;;25.60;96.20;;;;;;5076855;28;20425;-83
2022/08/15 08:43:30;;;;;;;7.93;5.60;;;25.60;98.40;;;;;;5076052;28;20794;-84
2022/08/15 08:46:19;;;;;;;5.23;4.40;;;25.70;99.00;;;;;;5064373;28;20445;-84
2022/08/15 08:49:16;;;;;;;6.73;4.50;;;25.70;99.50;;;;;;5076658;28;20425;-83
2022/08/15 08:51:48;;;;;;;5.10;4.20;;;25.80;99.90;;;;;;5062479;28;20463;-85
2022/08/15 08:54:37;;;;;;;7.37;4.90;;;26.00;99.50;;;;;;5063101;28;20429;-84
2022/08/15 08:57:09;;;;;;;10.73;4.73;;;26.10;98.60;;;;;;5058375;28;20408;-84
2022/08/15 08:59:48;;;;;;;7.47;4.77;;;26.30;97.80;;;;;;5086460;28;20487;-84
2022/08/15 09:02:26;;;;;;;5.80;4.63;;;26.50;97.50;;;;;;5058785;28;20522;-85
2022/08/15 09:04:58;;;;;;;7.10;5.20;;;26.60;96.30;;;;;;5061557;28;20953;-83
2022/08/15 09:07:28;;;;;;;5.27;4.53;;;26.70;95.30;;;;;;5049466;28;20484;-84
2022/08/15 09:09:58;;;;;;;5.73;4.03;;;26.80;95.10;;;;;;5064526;28;20988;-84
2022/08/15 09:15:21;;;;;;;6.97;4.50;;;26.90;93.90;;;;;;5085309;28;20427;-83
2022/08/15 09:18:01;;;;;;;6.23;4.90;;;27.00;92.60;;;;;;5054726;28;20438;-84
2022/08/15 09:20:38;;;;;;;6.00;4.37;;;27.00;92.60;;;;;;5063083;28;20428;-84
2022/08/15 09:23:06;;;;;;;9.40;4.90;;;27.00;91.40;;;;;;5072612;28;20453;-84
2022/08/15 09:25:36;;;;;;;6.40;4.60;;;27.20;91.20;;;;;;5059720;28;20443;-84
2022/08/15 09:28:14;;;;;;;6.27;5.07;;;27.40;91.00;;;;;;5076185;28;20428;-84
2022/08/15 09:30:45;;;;;;;8.77;5.93;;;27.70;90.30;;;;;;5063379;28;20434;-84
2022/08/15 09:33:29;;;;;;;6.73;4.70;;;28.10;89.30;;;;;;5060277;28;21072;-84
2022/08/15 09:36:13;;;;;;;5.33;4.20;;;28.20;85.20;;;;;;5070252;28;20432;-84
2022/08/15 09:38:47;;;;;;;5.27;4.77;;;28.20;81.70;;;;;;5046908;28;20870;-84
2022/08/15 09:41:51;;;;;;;8.90;5.37;;;28.20;81.00;;;;;;5069145;28;20500;-84
2022/08/15 09:44:33;;;;;;;7.93;4.40;;;28.00;78.50;;;;;;5071344;28;20794;-84
2022/08/15 09:47:10;;;;;;;9.20;4.53;;;27.70;76.70;;;;;;5075624;28;20498;-84
2022/08/15 09:50:13;;;;;;;7.70;4.87;;;27.50;76.90;;;;;;5066602;28;20790;-84
2022/08/15 09:53:01;;;;;;;7.93;4.43;;;27.50;77.30;;;;;;5070215;28;20473;-84
2022/08/15 09:55:34;;;;;;;7.47;4.70;;;27.70;79.30;;;;;;5064985;28;20454;-84
2022/08/15 09:58:14;;;;;;;5.83;4.27;;;28.10;79.60;;;;;;5050496;28;21401;-84
2022/08/15 10:01:12;;;;;;;5.70;4.90;;;28.60;78.00;;;;;;5041983;28;20794;-84
2022/08/15 10:03:43;;;;;;;6.40;4.30;;;29.40;76.20;;;;;;5044107;28;21483;-84
2022/08/15 10:06:10;;;;;;;8.27;4.50;;;30.50;75.00;;;;;;5042762;28;20466;-85
2022/08/15 10:08:52;;;;;;;4.63;3.60;;;31.50;73.00;;;;;;5042323;28;20472;-84
2022/08/15 10:11:31;;;;;;;4.63;4.00;;;32.20;69.70;;;;;;5041822;28;20463;-84
2022/08/15 10:14:14;;;;;;;9.77;4.17;;;32.60;64.80;;;;;;5040832;28;20443;-85
2022/08/15 10:16:40;;;;;;;5.30;4.20;;;32.30;59.00;;;;;;5040400;28;20567;-85
2022/08/15 10:19:11;;;;;;;6.07;4.73;;;31.70;54.80;;;;;;5063007;28;20486;-85
2022/08/15 10:21:44;;;;;;;7.47;4.20;;;31.00;51.30;;;;;;5061811;28;20571;-85
2022/08/15 10:24:38;;;;;;;8.70;5.00;;;30.30;49.20;;;;;;5043324;28;20489;-85
2022/08/15 10:27:10;;;;;;;7.50;4.60;;;29.70;47.10;;;;;;5059304;28;20446;-84
2022/08/15 10:29:40;;;;;;;5.33;4.40;;;29.40;47.10;;;;;;5068578;28;20447;-84
2022/08/15 10:32:21;;;;;;;7.87;4.60;;;29.10;59.80;;;;;;5064281;28;20847;-85
2022/08/15 10:35:01;;;;;;;7.33;4.60;;;28.80;47.80;;;;;;5064041;28;20891;-85
2022/08/15 10:37:29;;;;;;;11.03;5.40;;;28.60;47.80;;;;;;5043297;28;20518;-84
2022/08/15 10:40:39;;;;;;;7.67;5.20;;;28.40;48.60;;;;;;5042290;28;20447;-84
2022/08/15 10:43:39;;;;;;;9.43;5.20;;;28.30;49.10;;;;;;5060942;28;20447;-84
2022/08/15 10:46:17;;;;;;;6.13;4.10;;;28.20;50.60;;;;;;5046429;28;20438;-84
2022/08/15 10:49:01;;;;;;;10.53;4.60;;;28.20;50.90;;;;;;5045027;28;20460;-84
2022/08/15 10:51:36;;;;;;;6.10;5.20;;;28.10;64.80;;;;;;5067488;28;20459;-85
2022/08/15 10:54:22;;;;;;;6.50;4.23;;;27.90;51.10;;;;;;5061474;28;20427;-84
2022/08/15 10:56:54;;;;;;;8.13;4.27;;;27.80;51.50;;;;;;5050470;28;20431;-84
2022/08/15 10:59:25;;;;;;;5.40;4.37;;;27.60;52.50;;;;;;5057801;28;20456;-85
2022/08/15 11:02:01;;;;;;;7.33;5.40;;;27.50;53.50;;;;;;5063876;28;20510;-85
2022/08/15 11:04:35;;;;;;;7.17;4.60;;;27.40;54.00;;;;;;5045977;28;20537;-84
2022/08/15 11:07:02;;;;;;;6.50;5.07;;;27.20;54.50;;;;;;5042967;28;20439;-84
2022/08/15 11:09:31;;;;;;;11.50;5.50;;;27.10;54.70;;;;;;5045305;28;20818;-84
2022/08/15 11:12:03;;;;;;;6.60;5.10;;;27.00;55.90;;;;;;5051370;28;20467;-84
2022/08/15 11:14:38;;;;;;;6.80;4.93;;;27.00;56.80;;;;;;5066586;28;20856;-84
2022/08/15 11:17:12;;;;;;;6.27;5.20;;;26.90;58.90;;;;;;5057612;28;20488;-85
2022/08/15 11:19:42;;;;;;;11.70;5.43;;;26.80;60.00;;;;;;5060018;28;20459;-84
2022/08/15 11:22:18;;;;;;;6.17;4.50;;;26.70;67.40;;;;;;5063995;28;20442;-85
2022/08/15 11:25:36;;;;;;;6.77;5.53;;;26.60;71.40;;;;;;5060743;28;20430;-85
2022/08/15 11:28:21;;;;;;;6.67;5.03;;;26.60;79.50;;;;;;5040036;28;20450;-84
2022/08/15 11:30:47;;;;;;;10.27;5.17;;;26.50;85.30;;;;;;5039865;28;20557;-84
2022/08/15 11:33:25;;;;;;;5.33;4.83;;;26.50;89.50;;;;;;5042883;28;20490;-84
2022/08/15 11:36:08;;;;;;;6.53;4.90;;;26.60;90.70;;;;;;5044835;28;20438;-84
2022/08/15 11:38:36;;;;;;;7.60;5.57;;;26.60;89.60;;;;;;5042959;28;20511;-84
2022/08/15 11:41:02;;;;;;;8.50;5.33;;;26.70;88.60;;;;;;5062793;28;20486;-83
2022/08/15 11:43:29;;;;;;;6.17;5.57;;;26.60;87.20;;;;;;5049209;28;20431;-84
2022/08/15 11:45:56;;;;;;;9.23;5.43;;;26.70;87.70;;;;;;5045525;28;20432;-84
2022/08/15 11:48:26;;;;;;;10.00;5.90;;;26.60;88.00;;;;;;5043611;28;20452;-85
2022/08/15 11:50:59;;;;;;;7.13;5.50;;;26.70;90.50;;;;;;5069629;28;20816;-84
2022/08/15 11:53:30;;;;;;;7.57;5.20;;;26.60;94.10;;;;;;5069113;28;20431;-84
2022/08/15 11:55:55;;;;;;;6.20;5.57;;;26.60;97.00;;;;;;5069301;28;20405;-84
2022/08/15 11:58:30;;;;;;;6.00;5.47;;;26.50;99.10;;;;;;5059735;28;20482;-84
2022/08/15 12:00:58;;;;;;;12.57;6.17;;;26.40;99.90;;;;;;5060891;28;20177;-84
2022/08/15 12:03:37;;;;;;;7.47;5.73;;;26.30;99.90;;;;;;5055356;28;20419;-84
2022/08/15 12:06:26;;;;;;;6.87;5.50;;;26.30;99.90;;;;;;5057486;28;20422;-83
2022/08/15 12:08:51;;;;;;;5.67;5.17;;;26.40;99.90;;;;;;5068709;28;20446;-84
2022/08/15 12:11:22;;;;;;;6.50;5.40;;;26.40;99.90;;;;;;5073594;28;20524;-85
2022/08/15 12:14:04;;;;;;;9.40;6.17;;;26.60;99.90;;;;;;5056338;28;20188;-84
2022/08/15 12:16:38;;;;;;;6.80;6.10;;;26.70;99.90;;;;;;5068969;28;20427;-85
2022/08/15 12:19:29;;;;;;;11.60;5.77;;;26.80;99.90;;;;;;5080380;28;20456;-85
2022/08/15 12:21:58;;;;;;;9.80;5.47;;;27.10;99.90;;;;;;5067999;28;20428;-85
2022/08/15 12:24:28;;;;;;;9.43;5.37;;;27.40;99.90;;;;;;5049975;28;20453;-85
2022/08/15 12:26:57;;;;;;;6.43;4.90;;;27.70;99.90;;;;;;5050087;28;20439;-85
2022/08/15 12:29:24;;;;;;;8.60;5.80;;;27.90;99.90;;;;;;5070014;28;20451;-84
2022/08/15 12:31:53;;;;;;;10.83;5.33;;;28.20;99.90;;;;;;5046860;28;20464;-84
2022/08/15 12:34:23;;;;;;;6.43;4.50;;;28.70;99.90;;;;;;5050910;28;20431;-85
2022/08/15 12:36:50;;;;;;;6.13;5.20;;;29.40;99.90;;;;;;5052411;28;20868;-86
2022/08/15 12:39:17;;;;;;;6.90;5.10;;;30.90;99.90;;;;;;5045363;28;20472;-85
2022/08/15 12:41:46;;;;;;;4.30;3.90;;;32.30;98.20;;;;;;5062650;28;20432;-85
2022/08/15 12:44:36;;;;;;;4.83;3.87;;;33.20;94.30;;;;;;5070396;28;20957;-84
2022/08/15 12:47:02;;;;;;;8.10;4.27;;;33.30;89.10;;;;;;5065895;28;20466;-85
2022/08/15 12:49:27;;;;;;;7.13;4.20;;;33.00;81.00;;;;;;5048691;28;20456;-83
2022/08/15 12:51:53;;;;;;;4.40;4.00;;;32.50;75.40;;;;;;5093419;22;23206;-86
2022/08/15 12:54:19;;;;;;;4.87;4.40;;;32.20;70.40;;;;;;5070737;28;20323;-84
2022/08/15 12:56:45;;;;;;;5.07;4.43;;;31.90;66.70;;;;;;5092732;28;20478;-85
2022/08/15 12:59:12;;;;;;;5.10;4.60;;;31.70;64.40;;;;;;5071526;28;20193;-86
2022/08/15 13:01:41;;;;;;;5.40;4.63;;;31.50;61.50;;;;;;5090717;28;20559;-85
2022/08/15 13:04:10;;;;;;;4.97;4.47;;;31.40;59.40;;;;;;5059447;28;20435;-86
2022/08/15 13:06:48;;;;;;;5.70;4.40;;;31.20;58.90;;;;;;5068398;28;20434;-86
2022/08/15 13:09:17;;;;;;;5.37;4.87;;;31.10;58.60;;;;;;5069736;28;20429;-86
2022/08/15 13:11:44;;;;;;;6.00;5.07;;;31.10;58.30;;;;;;5085949;28;20475;-88
2022/08/15 13:14:12;;;;;;;7.10;4.23;;;31.40;58.20;;;;;;5093058;28;20977;-86
2022/08/15 13:16:38;;;;;;;6.00;4.60;;;32.00;57.60;;;;;;5084886;28;20445;-86
2022/08/15 13:19:10;;;;;;;7.93;4.40;;;32.60;57.60;;;;;;5082333;28;20464;-87
2022/08/15 13:24:56;;;;;;;5.53;4.23;;;34.00;54.50;;;;;;5084328;28;21003;-86
2022/08/15 13:27:22;;;;;;;3.87;3.47;;;34.70;51.30;;;;;;5081256;28;20507;-87
2022/08/15 13:29:47;;;;;;;7.70;3.70;;;34.90;48.50;;;;;;5088435;28;20875;-87
2022/08/15 13:32:18;;;;;;;6.63;3.43;;;35.00;44.60;;;;;;5059564;28;20215;-87